createdAt,value
2023-04-10T00:00:11.828Z,100.00
2023-04-10T00:02:50.139Z,100.00
2023-04-10T00:05:21.461Z,100.00
2023-04-10T00:08:03.209Z,100.00
2023-04-10T00:10:38.965Z,100.00
2023-04-10T00:13:12.755Z,100.00
2023-04-10T00:15:48.204Z,100.00
2023-04-10T00:18:18.984Z,100.00
2023-04-10T00:21:00.212Z,100.00
2023-04-10T00:23:33.990Z,100.00
2023-04-10T00:26:04.863Z,100.00
2023-04-10T00:28:41.231Z,100.00
2023-04-10T00:31:12.143Z,100.00
2023-04-10T00:33:45.751Z,100.00
2023-04-10T00:36:17.374Z,100.00
2023-04-10T00:38:49.706Z,100.00
2023-04-10T00:41:26.888Z,100.00
2023-04-10T00:43:58.986Z,100.00
2023-04-10T00:46:36.452Z,100.00
2023-04-10T00:49:09.574Z,100.00
2023-04-10T00:51:58.432Z,100.00
2023-04-10T00:54:35.972Z,100.00
2023-04-10T00:57:09.218Z,100.00
2023-04-10T00:59:52.591Z,100.00
2023-04-10T01:02:23.037Z,100.00
2023-04-10T01:04:59.338Z,100.00
2023-04-10T01:08:01.517Z,100.00
2023-04-10T01:11:07.549Z,100.00
2023-04-10T01:13:41.074Z,100.00
2023-04-10T01:16:57.029Z,100.00
2023-04-10T01:20:03.318Z,100.00
2023-04-10T01:25:53.147Z,100.00
2023-04-10T01:29:03.603Z,100.00
2023-04-10T01:32:12.286Z,100.00
2023-04-10T01:34:46.305Z,100.00
2023-04-10T01:37:21.807Z,100.00
2023-04-10T01:40:04.903Z,100.00
2023-04-10T01:42:40.013Z,100.00
2023-04-10T01:45:21.503Z,100.00
2023-04-10T01:48:02.181Z,100.00
2023-04-10T01:50:32.933Z,100.00
2023-04-10T01:53:07.075Z,100.00
2023-04-10T01:55:47.671Z,100.00
2023-04-10T01:58:25.544Z,100.00
2023-04-10T02:01:02.779Z,100.00
2023-04-10T02:03:31.768Z,100.00
2023-04-10T02:06:19.930Z,100.00
2023-04-10T02:08:59.143Z,100.00
2023-04-10T02:11:48.946Z,100.00
2023-04-10T02:14:20.313Z,100.00
2023-04-10T02:16:57.717Z,100.00
2023-04-10T02:19:36.488Z,100.00
2023-04-10T02:22:10.998Z,100.00
2023-04-10T02:24:49.122Z,100.00
2023-04-10T02:27:31.230Z,100.00
2023-04-10T02:30:06.267Z,100.00
2023-04-10T02:32:42.750Z,100.00
2023-04-10T02:35:14.427Z,100.00
2023-04-10T02:37:49.948Z,100.00
2023-04-10T02:43:22.177Z,100.00
2023-04-10T02:48:45.637Z,100.00
2023-04-10T02:51:23.463Z,100.00
2023-04-10T02:54:04.262Z,100.00
2023-04-10T02:56:40.201Z,100.00
2023-04-10T02:59:11.118Z,100.00
2023-04-10T03:01:45.004Z,100.00
2023-04-10T03:04:13.167Z,100.00
2023-04-10T03:06:48.228Z,100.00
2023-04-10T03:09:24.546Z,100.00
2023-04-10T03:11:57.223Z,100.00
2023-04-10T03:14:34.928Z,100.00
2023-04-10T03:17:14.570Z,100.00
2023-04-10T03:19:56.975Z,100.00
2023-04-10T03:22:33.819Z,100.00
2023-04-10T03:25:05.872Z,100.00
2023-04-10T03:27:47.299Z,100.00
2023-04-10T03:30:21.995Z,100.00
2023-04-10T03:32:57.070Z,100.00
2023-04-10T03:35:29.023Z,100.00
2023-04-10T03:38:02.952Z,100.00
2023-04-10T03:40:36.422Z,100.00
2023-04-10T03:43:19.590Z,100.00
2023-04-10T03:45:51.263Z,100.00
2023-04-10T03:48:24.211Z,100.00
2023-04-10T03:50:58.258Z,100.00
2023-04-10T03:53:38.901Z,100.00
2023-04-10T03:56:16.877Z,100.00
2023-04-10T03:58:51.328Z,100.00
2023-04-10T04:01:31.638Z,100.00
2023-04-10T04:04:12.573Z,100.00
2023-04-10T04:07:16.315Z,100.00
2023-04-10T04:10:13.585Z,100.00
2023-04-10T04:12:57.171Z,100.00
2023-04-10T04:15:56.970Z,100.00
2023-04-10T04:18:48.338Z,100.00
2023-04-10T04:21:40.189Z,100.00
2023-04-10T04:24:34.279Z,100.00
2023-04-10T04:27:21.990Z,100.00
2023-04-10T04:30:26.708Z,100.00
2023-04-10T04:33:31.665Z,100.00
2023-04-10T04:36:12.823Z,100.00
2023-04-10T04:39:09.269Z,100.00
2023-04-10T04:42:06.921Z,100.00
2023-04-10T04:45:16.577Z,100.00
2023-04-10T04:48:05.190Z,100.00
2023-04-10T04:50:51.780Z,100.00
2023-04-10T04:53:55.360Z,100.00
2023-04-10T04:56:46.121Z,100.00
2023-04-10T04:59:59.301Z,100.00
2023-04-10T05:02:58.419Z,100.00
2023-04-10T05:05:56.923Z,100.00
2023-04-10T05:08:48.163Z,100.00
2023-04-10T05:11:51.404Z,100.00
2023-04-10T05:14:45.607Z,100.00
2023-04-10T05:17:31.934Z,100.00
2023-04-10T05:20:21.963Z,100.00
2023-04-10T05:23:09.618Z,100.00
2023-04-10T05:25:43.275Z,100.00
2023-04-10T05:28:29.700Z,100.00
2023-04-10T05:31:28.608Z,100.00
2023-04-10T05:34:16.023Z,100.00
2023-04-10T05:37:05.744Z,100.00
2023-04-10T05:40:05.513Z,100.00
2023-04-10T05:42:56.499Z,100.00
2023-04-10T05:45:39.058Z,100.00
2023-04-10T05:48:29.078Z,100.00
2023-04-10T05:51:40.573Z,100.00
2023-04-10T05:54:37.927Z,100.00
2023-04-10T05:57:15.002Z,100.00
2023-04-10T06:00:04.361Z,100.00
2023-04-10T06:03:17.143Z,100.00
2023-04-10T06:06:02.066Z,100.00
2023-04-10T06:08:34.889Z,100.00
2023-04-10T06:11:13.265Z,100.00
2023-04-10T06:16:45.732Z,100.00
2023-04-10T06:19:16.774Z,100.00
2023-04-10T06:21:53.944Z,100.00
2023-04-10T06:24:31.405Z,100.00
2023-04-10T06:27:12.719Z,100.00
2023-04-10T06:29:44.465Z,100.00
2023-04-10T06:32:18.352Z,100.00
2023-04-10T06:35:06.613Z,100.00
2023-04-10T06:37:36.713Z,100.00
2023-04-10T06:40:17.319Z,100.00
2023-04-10T06:42:50.572Z,100.00
2023-04-10T06:45:54.649Z,100.00
2023-04-10T06:48:33.082Z,100.00
2023-04-10T06:51:09.478Z,100.00
2023-04-10T06:53:40.608Z,100.00
2023-04-10T06:56:17.347Z,100.00
2023-04-10T06:58:53.540Z,100.00
2023-04-10T07:01:33.316Z,100.00
2023-04-10T07:04:04.629Z,100.00
2023-04-10T07:06:44.849Z,100.00
2023-04-10T07:09:18.145Z,100.00
2023-04-10T07:11:50.157Z,100.00
2023-04-10T07:14:22.895Z,100.00
2023-04-10T07:16:54.322Z,100.00
2023-04-10T07:19:43.382Z,100.00
2023-04-10T07:22:16.014Z,100.00
2023-04-10T07:24:58.044Z,100.00
2023-04-10T07:27:35.430Z,100.00
2023-04-10T07:30:07.409Z,100.00
2023-04-10T07:32:41.727Z,100.00
2023-04-10T07:35:14.849Z,100.00
2023-04-10T07:40:48.862Z,100.00
2023-04-10T07:43:20.456Z,100.00
2023-04-10T07:45:54.904Z,100.00
2023-04-10T07:51:10.828Z,100.00
2023-04-10T07:53:40.540Z,100.00
2023-04-10T07:56:23.998Z,100.00
2023-04-10T07:58:53.989Z,100.00
2023-04-10T08:01:25.051Z,100.00
2023-04-10T08:04:00.646Z,100.00
2023-04-10T08:06:34.946Z,100.00
2023-04-10T08:09:10.743Z,100.00
2023-04-10T08:11:41.401Z,100.00
2023-04-10T08:14:18.487Z,100.00
2023-04-10T08:16:47.916Z,100.00
2023-04-10T08:19:21.651Z,100.00
2023-04-10T08:21:52.362Z,100.00
2023-04-10T08:24:25.986Z,100.00
2023-04-10T08:26:58.121Z,100.00
2023-04-10T08:29:27.108Z,100.00
2023-04-10T08:32:04.667Z,100.00
2023-04-10T08:34:35.794Z,100.00
2023-04-10T08:37:12.023Z,100.00
2023-04-10T08:39:42.735Z,100.00
2023-04-10T08:42:14.230Z,100.00
2023-04-10T08:44:49.454Z,100.00
2023-04-10T08:50:12.042Z,100.00
2023-04-10T08:52:46.521Z,100.00
2023-04-10T08:55:20.006Z,100.00
2023-04-10T09:00:50.449Z,100.00
2023-04-10T09:03:29.389Z,100.00
2023-04-10T09:06:04.540Z,100.00
2023-04-10T09:08:40.972Z,100.00
2023-04-10T09:11:16.696Z,100.00
2023-04-10T09:13:51.302Z,100.00
2023-04-10T09:16:32.525Z,100.00
2023-04-10T09:19:10.221Z,100.00
2023-04-10T09:21:54.144Z,100.00
2023-04-10T09:24:24.481Z,100.00
2023-04-10T09:26:58.881Z,100.00
2023-04-10T09:29:29.785Z,100.00
2023-04-10T09:31:57.596Z,100.00
2023-04-10T09:34:29.324Z,100.00
2023-04-10T09:37:09.990Z,100.00
2023-04-10T09:39:43.916Z,100.00
2023-04-10T09:42:23.618Z,100.00
2023-04-10T09:44:59.080Z,100.00
2023-04-10T09:47:29.593Z,100.00
2023-04-10T09:50:06.084Z,100.00
2023-04-10T09:52:52.955Z,100.00
2023-04-10T09:55:23.511Z,100.00
2023-04-10T09:57:55.899Z,100.00
2023-04-10T10:00:26.529Z,100.00
2023-04-10T10:05:48.579Z,100.00
2023-04-10T10:08:25.206Z,100.00
2023-04-10T10:10:58.817Z,100.00
2023-04-10T10:14:06.041Z,100.00
2023-04-10T10:17:03.039Z,100.00
2023-04-10T10:20:04.392Z,100.00
2023-04-10T10:22:39.370Z,100.00
2023-04-10T10:25:13.976Z,100.00
2023-04-10T10:27:50.765Z,100.00
2023-04-10T10:30:29.931Z,100.00
2023-04-10T10:33:10.269Z,100.00
2023-04-10T10:35:42.040Z,100.00
2023-04-10T10:38:11.938Z,100.00
2023-04-10T10:41:09.147Z,100.00
2023-04-10T10:44:23.382Z,80.06
2023-04-10T10:47:34.052Z,100.00
2023-04-10T10:50:05.964Z,100.00
2023-04-10T10:53:09.872Z,100.00
2023-04-10T10:55:44.195Z,100.00
2023-04-10T10:58:17.801Z,99.70
2023-04-10T11:00:56.504Z,72.14
2023-04-10T11:03:24.344Z,69.61
2023-04-10T11:06:15.515Z,97.37
2023-04-10T11:09:03.315Z,100.00
2023-04-10T11:11:34.237Z,100.00
2023-04-10T11:14:20.885Z,95.71
2023-04-10T11:17:00.104Z,70.20
2023-04-10T11:19:43.601Z,86.98
2023-04-10T11:22:23.791Z,77.29
2023-04-10T11:25:11.891Z,57.62
2023-04-10T11:27:58.797Z,56.15
2023-04-10T11:30:29.870Z,59.11
2023-04-10T11:33:03.437Z,78.34
2023-04-10T11:35:35.510Z,78.79
2023-04-10T11:38:13.779Z,73.70
2023-04-10T11:41:21.272Z,60.34
2023-04-10T11:43:53.574Z,55.52
2023-04-10T11:46:31.781Z,54.78
2023-04-10T11:49:12.694Z,58.27
2023-04-10T11:51:46.443Z,79.45
2023-04-10T11:54:27.468Z,66.13
2023-04-10T11:57:07.688Z,68.26
2023-04-10T11:59:44.056Z,68.31
2023-04-10T12:02:20.920Z,58.72
2023-04-10T12:04:59.602Z,68.24
2023-04-10T12:07:34.655Z,56.27
2023-04-10T12:10:14.919Z,73.71
2023-04-10T12:12:47.247Z,69.92
2023-04-10T12:15:38.630Z,84.94
2023-04-10T12:18:09.556Z,62.72
2023-04-10T12:20:40.394Z,66.85
2023-04-10T12:23:10.482Z,55.94
2023-04-10T12:25:46.329Z,51.82
2023-04-10T12:28:26.549Z,50.85
2023-04-10T12:31:06.099Z,58.38
2023-04-10T12:33:43.636Z,61.15
2023-04-10T12:36:32.442Z,56.33
2023-04-10T12:41:53.825Z,59.29
2023-04-10T12:44:24.119Z,62.58
2023-04-10T12:47:10.302Z,59.09
2023-04-10T12:49:46.285Z,57.82
2023-04-10T12:55:28.226Z,35.99
2023-04-10T12:58:07.194Z,34.91
2023-04-10T13:00:37.248Z,42.36
2023-04-10T13:03:13.632Z,45.50
2023-04-10T13:05:47.060Z,50.72
2023-04-10T13:08:27.481Z,44.19
2023-04-10T13:10:58.383Z,40.79
2023-04-10T13:13:35.712Z,45.67
2023-04-10T13:16:03.964Z,45.30
2023-04-10T13:18:37.851Z,43.03
2023-04-10T13:21:09.129Z,40.47
2023-04-10T13:23:40.624Z,30.58
2023-04-10T13:26:14.097Z,28.11
2023-04-10T13:28:45.778Z,27.21
2023-04-10T13:31:16.584Z,27.86
2023-04-10T13:33:54.627Z,33.50
2023-04-10T13:36:27.767Z,29.02
2023-04-10T13:39:02.768Z,26.98
2023-04-10T13:41:46.532Z,26.45
2023-04-10T13:44:20.009Z,27.25
2023-04-10T13:46:49.452Z,27.38
2023-04-10T13:49:24.554Z,26.28
2023-04-10T13:51:56.258Z,27.81
2023-04-10T13:54:30.746Z,26.73
2023-04-10T13:57:14.138Z,24.31
2023-04-10T13:59:44.710Z,27.28
2023-04-10T14:02:17.553Z,27.43
2023-04-10T14:04:59.023Z,29.17
2023-04-10T14:07:35.463Z,26.49
2023-04-10T14:10:06.197Z,26.95
2023-04-10T14:12:37.964Z,30.75
2023-04-10T14:15:13.188Z,35.99
2023-04-10T14:17:47.131Z,33.95
2023-04-10T14:20:17.719Z,34.98
2023-04-10T14:22:51.554Z,35.18
2023-04-10T14:25:25.893Z,34.84
2023-04-10T14:27:56.576Z,34.44
2023-04-10T14:30:33.853Z,34.06
2023-04-10T14:35:46.335Z,37.13
2023-04-10T14:38:25.484Z,32.71
2023-04-10T14:40:56.437Z,38.24
2023-04-10T14:43:32.590Z,34.48
2023-04-10T14:46:08.592Z,35.62
2023-04-10T14:48:42.253Z,34.60
2023-04-10T14:51:17.808Z,32.22
2023-04-10T14:53:51.469Z,33.33
2023-04-10T14:56:24.523Z,31.95
2023-04-10T14:58:55.762Z,29.49
2023-04-10T15:01:26.669Z,27.42
2023-04-10T15:04:00.700Z,27.70
2023-04-10T15:06:37.255Z,26.70
2023-04-10T15:09:07.873Z,26.70
2023-04-10T15:11:37.760Z,31.34
2023-04-10T15:14:11.383Z,29.40
2023-04-10T15:16:47.544Z,29.72
2023-04-10T15:22:18.123Z,33.57
2023-04-10T15:24:52.124Z,36.45
2023-04-10T15:27:32.100Z,35.67
2023-04-10T15:30:06.619Z,34.08
2023-04-10T15:32:38.170Z,36.65
2023-04-10T15:35:12.203Z,38.64
2023-04-10T15:37:44.711Z,38.47
2023-04-10T15:40:17.359Z,37.96
2023-04-10T15:42:54.512Z,42.57
2023-04-10T15:45:36.891Z,42.75
2023-04-10T15:48:06.621Z,41.55
2023-04-10T15:50:52.756Z,42.91
2023-04-10T15:53:31.636Z,43.20
2023-04-10T15:56:06.300Z,39.38
2023-04-10T15:58:47.093Z,42.27
2023-04-10T16:04:03.535Z,39.23
2023-04-10T16:06:37.906Z,37.06
2023-04-10T16:09:22.049Z,37.20
2023-04-10T16:12:09.311Z,36.08
2023-04-10T16:17:32.529Z,36.82
2023-04-10T16:20:07.577Z,39.17
2023-04-10T16:22:42.437Z,39.01
2023-04-10T16:25:27.269Z,36.96
2023-04-10T16:28:01.573Z,36.65
2023-04-10T16:30:32.675Z,38.99
2023-04-10T16:33:04.395Z,38.60
2023-04-10T16:35:36.324Z,42.96
2023-04-10T16:38:07.375Z,37.72
2023-04-10T16:40:39.129Z,37.64
2023-04-10T16:43:19.602Z,41.78
2023-04-10T16:45:59.198Z,40.80
2023-04-10T16:48:34.968Z,41.88
2023-04-10T16:51:10.454Z,42.37
2023-04-10T16:56:23.873Z,48.47
2023-04-10T17:01:42.811Z,44.40
2023-04-10T17:04:19.074Z,44.39
2023-04-10T17:06:58.156Z,44.32
2023-04-10T17:09:27.294Z,56.02
2023-04-10T17:12:03.931Z,72.82
2023-04-10T17:14:38.120Z,79.63
2023-04-10T17:17:19.685Z,74.31
2023-04-10T17:19:53.650Z,81.48
2023-04-10T17:22:27.055Z,68.03
2023-04-10T17:25:00.455Z,60.83
2023-04-10T17:27:30.567Z,57.93
2023-04-10T17:29:59.401Z,58.49
2023-04-10T17:35:11.454Z,65.13
2023-04-10T17:37:45.035Z,65.40
2023-04-10T17:40:18.936Z,75.83
2023-04-10T17:42:49.766Z,72.07
2023-04-10T17:45:18.917Z,79.41
2023-04-10T17:47:52.756Z,91.29
2023-04-10T17:50:22.379Z,100.00
2023-04-10T17:52:53.983Z,100.00
2023-04-10T17:55:24.181Z,100.00
2023-04-10T17:58:01.165Z,100.00
2023-04-10T18:00:44.914Z,100.00
2023-04-10T18:03:15.492Z,100.00
2023-04-10T18:05:57.771Z,100.00
2023-04-10T18:08:33.153Z,100.00
2023-04-10T18:11:07.880Z,100.00
2023-04-10T18:13:39.306Z,100.00
2023-04-10T18:16:10.306Z,100.00
2023-04-10T18:18:53.425Z,100.00
2023-04-10T18:21:32.039Z,100.00
2023-04-10T18:24:01.424Z,100.00
2023-04-10T18:26:38.343Z,100.00
2023-04-10T18:29:14.738Z,100.00
2023-04-10T18:31:47.709Z,100.00
2023-04-10T18:34:16.089Z,100.00
2023-04-10T18:36:46.765Z,100.00
2023-04-10T18:39:21.490Z,100.00
2023-04-10T18:41:55.194Z,100.00
2023-04-10T18:44:26.511Z,100.00
2023-04-10T18:47:03.786Z,100.00
2023-04-10T18:49:41.985Z,100.00
2023-04-10T18:52:26.302Z,100.00
2023-04-10T18:55:10.543Z,100.00
2023-04-10T18:57:41.169Z,100.00
2023-04-10T19:00:12.586Z,100.00
2023-04-10T19:02:43.757Z,100.00
2023-04-10T19:05:17.650Z,100.00
2023-04-10T19:08:03.106Z,100.00
2023-04-10T19:10:38.639Z,100.00
2023-04-10T19:13:09.315Z,100.00
2023-04-10T19:15:48.303Z,100.00
2023-04-10T19:18:31.928Z,100.00
2023-04-10T19:21:08.508Z,100.00
2023-04-10T19:23:48.611Z,100.00
2023-04-10T19:26:19.971Z,100.00
2023-04-10T19:28:51.880Z,100.00
2023-04-10T19:31:28.192Z,100.00
2023-04-10T19:36:57.978Z,100.00
2023-04-10T19:39:42.237Z,100.00
2023-04-10T19:42:11.515Z,100.00
2023-04-10T19:44:47.954Z,100.00
2023-04-10T19:47:28.679Z,100.00
2023-04-10T19:50:09.184Z,100.00
2023-04-10T19:52:46.722Z,100.00
2023-04-10T19:55:19.025Z,100.00
2023-04-10T19:57:49.414Z,100.00
2023-04-10T20:00:34.575Z,100.00
2023-04-10T20:03:07.654Z,100.00
2023-04-10T20:05:41.160Z,100.00
2023-04-10T20:08:21.487Z,100.00
2023-04-10T20:10:58.397Z,100.00
2023-04-10T20:13:32.208Z,100.00
2023-04-10T20:16:03.379Z,100.00
2023-04-10T20:18:50.710Z,100.00
2023-04-10T20:21:22.907Z,100.00
2023-04-10T20:23:57.202Z,100.00
2023-04-10T20:26:38.619Z,100.00
2023-04-10T20:29:17.345Z,100.00
2023-04-10T20:31:47.947Z,100.00
2023-04-10T20:34:21.730Z,100.00
2023-04-10T20:37:07.889Z,100.00
2023-04-10T20:39:42.271Z,100.00
2023-04-10T20:42:12.664Z,100.00
2023-04-10T20:44:43.844Z,100.00
2023-04-10T20:47:21.062Z,100.00
2023-04-10T20:49:52.053Z,100.00
2023-04-10T20:52:22.242Z,100.00
2023-04-10T20:55:02.377Z,100.00
2023-04-10T20:57:38.711Z,100.00
2023-04-10T21:00:18.429Z,100.00
2023-04-10T21:02:56.280Z,100.00
2023-04-10T21:05:30.130Z,100.00
2023-04-10T21:08:02.817Z,100.00
2023-04-10T21:10:37.321Z,100.00
2023-04-10T21:13:11.341Z,100.00
2023-04-10T21:18:29.689Z,100.00
2023-04-10T21:21:02.145Z,100.00
2023-04-10T21:23:39.708Z,100.00
2023-04-10T21:26:10.911Z,100.00
2023-04-10T21:28:46.198Z,100.00
2023-04-10T21:31:30.218Z,100.00
2023-04-10T21:34:00.914Z,100.00
2023-04-10T21:39:23.946Z,100.00
2023-04-10T21:41:53.514Z,100.00
2023-04-10T21:44:27.231Z,100.00
2023-04-10T21:49:43.948Z,100.00
2023-04-10T21:52:17.672Z,100.00
2023-04-10T21:54:55.253Z,100.00
2023-04-10T21:57:25.554Z,100.00
2023-04-10T21:59:59.591Z,100.00
2023-04-10T22:02:29.090Z,100.00
2023-04-10T22:05:00.779Z,100.00
2023-04-10T22:07:44.607Z,100.00
2023-04-10T22:10:20.174Z,100.00
2023-04-10T22:15:38.891Z,100.00
2023-04-10T22:18:07.695Z,100.00
2023-04-10T22:20:45.476Z,100.00
2023-04-10T22:26:00.954Z,100.00
2023-04-10T22:28:29.569Z,100.00
2023-04-10T22:31:00.937Z,100.00
2023-04-10T22:33:28.803Z,100.00
2023-04-10T22:36:03.454Z,100.00
2023-04-10T22:38:33.250Z,100.00
2023-04-10T22:41:06.172Z,100.00
2023-04-10T22:43:47.083Z,100.00
2023-04-10T22:46:23.330Z,100.00
2023-04-10T22:48:54.376Z,100.00
2023-04-10T22:51:28.857Z,100.00
2023-04-10T22:53:57.429Z,100.00
2023-04-10T22:56:42.727Z,100.00
2023-04-10T22:59:20.396Z,100.00
2023-04-10T23:01:52.130Z,100.00
2023-04-10T23:04:22.808Z,100.00
2023-04-10T23:06:53.305Z,100.00
2023-04-10T23:09:23.648Z,100.00
2023-04-10T23:11:51.367Z,100.00
2023-04-10T23:14:21.683Z,100.00
2023-04-10T23:16:50.611Z,100.00
2023-04-10T23:19:24.218Z,100.00
2023-04-10T23:24:40.836Z,100.00
2023-04-10T23:27:17.190Z,100.00
2023-04-10T23:29:51.249Z,100.00
2023-04-10T23:32:22.188Z,100.00
2023-04-10T23:35:07.896Z,100.00
2023-04-10T23:37:41.499Z,100.00
2023-04-10T23:40:12.203Z,100.00
2023-04-10T23:42:41.154Z,100.00
2023-04-10T23:45:15.767Z,100.00
2023-04-10T23:47:58.454Z,100.00
2023-04-10T23:50:32.351Z,100.00
2023-04-10T23:53:06.052Z,100.00
2023-04-10T23:55:39.895Z,100.00
2023-04-10T23:58:14.984Z,100.00
